LGSA/CHQ METAR and TAF weather

Enter ICAO airport designator
Station Type Date Time Source
LGSA METAR 2019/02/17 08:20 UTC NOAA

LGSA 170820Z 01010G20KT 9999 FEW010 BKN025 BKN060 10/07 Q1022


Station Type Date Time Source
LGSA Decoded METAR 2019/02/17 08:20 UTC NOAA

Souda Airport , Greece (LGSA) 35-29N 024-07E 151M
Feb 17, 2019 - 03:20 AM EST / 2019.02.17 0820 UTC
Wind: from the N (010 degrees) at 12 MPH (10 KT) gusting to 23 MPH (20 KT):0
Visibility: greater than 7 mile(s):0
Sky conditions: mostly cloudy
Temperature: 50 F (10 C)
Dew Point: 44 F (7 C)
Relative Humidity: 81%
Pressure (altimeter): 30.18 in. Hg (1022 hPa)
ob: LGSA 170820Z 01010G20KT 9999 FEW010 BKN025 BKN060 10/07 Q1022
cycle: 8

Station Type Date Time Source
LGSA TAF 2019/02/17 06:14 UTC NOAA

TAF LGSA 170500Z 1706/1806 36015G25KT 9999 FEW010 FEW018TCU BKN020 PROB40
TEMPO 1706/1721 5000 RA PROB30
TEMPO 1706/1715 4000 TSRA SCT012 FEW016CB BKN020
BECMG 1715/1717 36015KT
BECMG 1719/1721 33010KT


Example: see airport list